Merrimac — WDC8717 — position and weather

sailwx.info

Track history (hours):
 
Tides and Currents Weather Stations Pressure Air Temp Water Temp Dewpoint Dewpoint Depression Visibility Wind Speed Wind Dir Waves Ship Positions

Merrimac

Owner: Intracoastal Marine, Inc., Coinjock, NC. More information available from US FCC via Universal Licensing System and Coast Guard Vessel Documentation Center.

Last reported at 2018-Aug-21 04:03 UTC. Time now 2018-Aug-21 04:20 UTC.
Position N 36°48' W 076°17'.

Length 23 m; draft 3 m.

Type: Tug. MMSI: 367091990.

Date/timePositionNaut miles runAvg speedWind from/ knotsBaromVisibWave heightAir tempDewpointWater temp
2018-Aug-21 04:03N 36°48' W 076°17'0 0.1
2018-Aug-21 04:00N 36°49' W 076°17'0 0.0
2018-Aug-21 03:30N 36°49' W 076°17'0 0.0
2018-Aug-21 03:03N 36°48' W 076°17'0 0.1
2018-Aug-21 03:00N 36°49' W 076°17'0 0.0
2018-Aug-21 02:30N 36°49' W 076°17'0 0.0
2018-Aug-21 02:03N 36°49' W 076°17'0 0.0
2018-Aug-21 02:00N 36°49' W 076°17'0 0.0
2018-Aug-21 01:30N 36°49' W 076°17'0 0.0
2018-Aug-21 01:04N 36°48' W 076°17'0 0.1
2018-Aug-21 01:01N 36°49' W 076°17'0 0.0
2018-Aug-21 00:30N 36°48' W 076°17'0 0.0
2018-Aug-21 00:03N 36°49' W 076°17'0 0.0
2018-Aug-21 00:00N 36°49' W 076°17'0 0.0
2018-Aug-20 23:30N 36°49' W 076°17'0 0.0
2018-Aug-20 23:03N 36°49' W 076°17'0 0.0
2018-Aug-20 23:00N 36°49' W 076°17'0 0.0
2018-Aug-20 22:30N 36°49' W 076°17'0 0.0
2018-Aug-20 22:03N 36°49' W 076°17'0 0.0
2018-Aug-20 22:00N 36°49' W 076°17'0 0.0
2018-Aug-20 21:30N 36°48' W 076°17'0 0.0
2018-Aug-20 21:03N 36°48' W 076°17'0 0.1
2018-Aug-20 21:00N 36°49' W 076°17'0 0.0
2018-Aug-20 20:30N 36°48' W 076°17'0 0.0
2018-Aug-20 20:04N 36°49' W 076°17'0 0.0
2018-Aug-20 20:01N 36°49' W 076°17'0 0.0
2018-Aug-20 19:30N 36°49' W 076°17'0 0.0
2018-Aug-20 19:03N 36°49' W 076°17'0 0.0
2018-Aug-20 19:01N 36°49' W 076°17'0 0.0
2018-Aug-20 18:30N 36°48' W 076°17'0 0.1
2018-Aug-20 18:03N 36°48' W 076°17'0 4.0
2018-Aug-20 18:00N 36°49' W 076°17'5 6.1
2018-Aug-20 17:13N 36°53' W 076°20'1 8.1
2018-Aug-20 17:03N 36°52' W 076°19'1 8.4
2018-Aug-20 17:00N 36°52' W 076°19'3 6.7
2018-Aug-20 16:30N 36°48' W 076°17'0 0.4
2018-Aug-20 16:03N 36°49' W 076°17'0 0.0
2018-Aug-20 16:00N 36°49' W 076°17'0 0.3
2018-Aug-20 15:30N 36°48' W 076°17'1 1.9
2018-Aug-20 15:03N 36°48' W 076°18'0 4.7
2018-Aug-20 15:00N 36°48' W 076°18'3 5.3
2018-Aug-20 14:30N 36°50' W 076°17'2 3.4
2018-Aug-20 13:59N 36°50' W 076°15'1 2.9
2018-Aug-20 13:30N 36°50' W 076°17'0 0.3
2018-Aug-20 13:03N 36°50' W 076°17'0 0.1
2018-Aug-20 13:00N 36°50' W 076°17'0 0.0
2018-Aug-20 12:30N 36°50' W 076°17'1 3.1
2018-Aug-20 12:03N 36°49' W 076°17'0 7.6
2018-Aug-20 12:00N 36°49' W 076°17'0 0.5
2018-Aug-20 11:30N 36°48' W 076°17'0 0.0
2018-Aug-20 11:03N 36°49' W 076°17'0 0.1
2018-Aug-20 11:00N 36°48' W 076°17'0 0.0
2018-Aug-20 10:31N 36°48' W 076°17'0 0.0
2018-Aug-20 10:03N 36°49' W 076°17'0 0.1
2018-Aug-20 10:00N 36°48' W 076°17'0 0.0
2018-Aug-20 09:30N 36°49' W 076°17'0 0.0
2018-Aug-20 09:03N 36°49' W 076°17'0 0.1
2018-Aug-20 09:00N 36°49' W 076°17'0 0.0
2018-Aug-20 08:30N 36°49' W 076°17'0 0.0
2018-Aug-20 08:03N 36°49' W 076°17'0 0.1
2018-Aug-20 08:00N 36°49' W 076°17'0 0.0
2018-Aug-20 07:30N 36°49' W 076°17'0 0.0
2018-Aug-20 07:03N 36°49' W 076°17'0 0.0
2018-Aug-20 07:00N 36°49' W 076°17'0 0.0
2018-Aug-20 06:30N 36°49' W 076°17'0 0.0
2018-Aug-20 06:03N 36°49' W 076°17'0 0.0
2018-Aug-20 06:00N 36°49' W 076°17'0 0.0
2018-Aug-20 05:30N 36°49' W 076°17'0 0.0
2018-Aug-20 05:03N 36°49' W 076°17'0 0.1
2018-Aug-20 05:00N 36°49' W 076°17'0 0.0
2018-Aug-20 04:47N 36°49' W 076°17'0 0.0
2018-Aug-20 04:30N 36°49' W 076°17'0 0.0
2018-Aug-20 04:00N 36°49' W 076°17'0 0.0
2018-Aug-20 03:30N 36°49' W 076°17'0 0.0
2018-Aug-20 03:00N 36°49' W 076°17'0 0.0
2018-Aug-20 02:30N 36°49' W 076°17'0 0.0
2018-Aug-20 02:00N 36°49' W 076°17'0 0.0
2018-Aug-20 01:30N 36°49' W 076°17'0 0.0
2018-Aug-20 01:00N 36°49' W 076°17'0 0.0
2018-Aug-20 00:30N 36°49' W 076°17'0 0.0
2018-Aug-20 00:00N 36°49' W 076°17'0 0.0
2018-Aug-19 23:30N 36°49' W 076°17'0 0.0
2018-Aug-19 23:00N 36°49' W 076°17'0 0.0
2018-Aug-19 22:30N 36°49' W 076°17'0 0.0
2018-Aug-19 22:00N 36°49' W 076°17'0 0.0
2018-Aug-19 21:30N 36°49' W 076°17'0 0.0
2018-Aug-19 21:00N 36°49' W 076°17'0 0.0
2018-Aug-19 20:30N 36°49' W 076°17'0 0.0
2018-Aug-19 20:00N 36°49' W 076°17'0 0.0
2018-Aug-19 19:30N 36°49' W 076°17'0 0.0
2018-Aug-19 19:00N 36°49' W 076°17'0 0.0
2018-Aug-19 18:30N 36°49' W 076°17'0 0.0
2018-Aug-19 18:00N 36°49' W 076°17'0 0.0
2018-Aug-19 17:30N 36°49' W 076°17'0 0.0
2018-Aug-19 17:00N 36°49' W 076°17'0 0.0
2018-Aug-19 16:30N 36°49' W 076°17'0 0.0
2018-Aug-19 16:00N 36°49' W 076°17'0 0.0
2018-Aug-19 15:30N 36°49' W 076°17'0 0.0
2018-Aug-19 15:00N 36°49' W 076°17'0 0.0
2018-Aug-19 14:30N 36°49' W 076°17'0 0.0
2018-Aug-19 14:00N 36°49' W 076°17'0 0.0
2018-Aug-19 13:30N 36°49' W 076°17'0 0.0
2018-Aug-19 13:00N 36°49' W 076°17'0 0.0
2018-Aug-19 12:30N 36°49' W 076°17'0 0.0
2018-Aug-19 12:00N 36°49' W 076°17'0 0.0
2018-Aug-19 11:30N 36°49' W 076°17'0 0.0
2018-Aug-19 11:00N 36°49' W 076°17'0 0.0
2018-Aug-19 10:30N 36°49' W 076°17'0 0.0
2018-Aug-19 10:00N 36°49' W 076°17'0 0.0
2018-Aug-19 09:30N 36°49' W 076°17'0 0.0
2018-Aug-19 09:00N 36°49' W 076°17'0 0.0
2018-Aug-19 08:30N 36°49' W 076°17'0 0.0
2018-Aug-19 08:00N 36°49' W 076°17'0 0.0
2018-Aug-19 07:30N 36°49' W 076°17'0 0.0
2018-Aug-19 07:00N 36°49' W 076°17'0 0.0
2018-Aug-19 06:30N 36°49' W 076°17'0 0.0
2018-Aug-19 06:00N 36°49' W 076°17'0 0.0
2018-Aug-19 05:30N 36°49' W 076°17'0 0.0
2018-Aug-19 05:00N 36°49' W 076°17'0 0.0
2018-Aug-19 04:30N 36°49' W 076°17'0 0.0
2018-Aug-19 04:00N 36°49' W 076°17'0 0.0
2018-Aug-19 03:30N 36°49' W 076°17'0 0.0
2018-Aug-19 03:00N 36°49' W 076°17'0 0.0
2018-Aug-19 02:30N 36°49' W 076°17'0 0.0
2018-Aug-19 02:00N 36°49' W 076°17'0 0.0
2018-Aug-19 01:30N 36°49' W 076°17'0 0.0
2018-Aug-19 01:00N 36°49' W 076°17'0 0.0
2018-Aug-19 00:30N 36°49' W 076°17'0 0.0
2018-Aug-19 00:00N 36°49' W 076°17'0 0.0
2018-Aug-18 23:30N 36°49' W 076°17'0 0.0
2018-Aug-18 23:00N 36°49' W 076°17'0 0.0
2018-Aug-18 22:30N 36°49' W 076°17'0 0.0
2018-Aug-18 22:00N 36°49' W 076°17'0 0.0
2018-Aug-18 21:30N 36°49' W 076°17'0 0.0
2018-Aug-18 21:00N 36°49' W 076°17'0 0.0
2018-Aug-18 20:30N 36°49' W 076°17'0 0.0
2018-Aug-18 20:00N 36°49' W 076°17'0 0.1
2018-Aug-18 19:31N 36°48' W 076°17'1 2.1
2018-Aug-18 19:00N 36°48' W 076°18'3 5.3
2018-Aug-18 18:31N 36°50' W 076°18'126 5.8
2018-Aug-17 20:44N 38°56' W 076°25'4 6.5
2018-Aug-17 20:06N 38°60' W 076°23'2 6.6
2018-Aug-17 19:50N 39°01' W 076°23'2 6.5
2018-Aug-17 19:29N 39°04' W 076°23'3 6.4
2018-Aug-17 18:58N 39°07' W 076°24'3 6.2
2018-Aug-17 18:30N 39°10' W 076°25'3 5.9
2018-Aug-17 18:00N 39°11' W 076°28'3 6.0
2018-Aug-17 17:31N 39°13' W 076°32'2 4.9
2018-Aug-17 17:00N 39°13' W 076°35'0 0.8
2018-Aug-17 16:30N 39°12' W 076°35'0 0.0
2018-Aug-17 16:00N 39°12' W 076°35'0 0.0
2018-Aug-17 15:30N 39°12' W 076°35'0 0.0
2018-Aug-17 15:01N 39°12' W 076°35'0 0.0
2018-Aug-17 14:01N 39°12' W 076°35'0 0.0
2018-Aug-17 13:30N 39°12' W 076°35'0 0.0
2018-Aug-17 13:01N 39°12' W 076°35'0 0.0
2018-Aug-17 12:30N 39°12' W 076°35'0 0.0
2018-Aug-17 12:00N 39°12' W 076°35'0 0.0
2018-Aug-17 11:30N 39°12' W 076°35'0 0.0
2018-Aug-17 11:00N 39°12' W 076°35'0 0.0
2018-Aug-17 10:30N 39°12' W 076°35'0 0.0
2018-Aug-17 10:00N 39°12' W 076°35'0 0.0
2018-Aug-17 09:30N 39°12' W 076°35'0 0.0
2018-Aug-17 09:00N 39°12' W 076°35'2 3.7
2018-Aug-17 08:30N 39°13' W 076°33'4 7.4
2018-Aug-17 08:00N 39°12' W 076°29'4 7.1
2018-Aug-17 07:30N 39°09' W 076°25'5 7.1
2018-Aug-17 06:48N 39°05' W 076°24'2 7.5
2018-Aug-17 06:28N 39°02' W 076°23'3 7.2
2018-Aug-17 06:00N 38°59' W 076°23'10 7.7
2018-Aug-17 04:40N 38°49' W 076°27'1 7.6
2018-Aug-17 04:30N 38°48' W 076°28'111 7.4
2018-Aug-16 13:36N 36°57' W 076°20'2 6.8
2018-Aug-16 13:22N 36°55' W 076°20'2 6.7
2018-Aug-16 13:00N 36°53' W 076°20'3 6.7
2018-Aug-16 12:30N 36°50' W 076°18'3 6.6
2018-Aug-16 12:00N 36°47' W 076°18'0 0.8
2018-Aug-16 11:30N 36°47' W 076°19'2 4.0
2018-Aug-16 11:00N 36°48' W 076°17'0 0.3
2018-Aug-16 10:30N 36°49' W 076°17'0 0.0
2018-Aug-16 10:00N 36°49' W 076°17'0 0.0
2018-Aug-16 09:30N 36°49' W 076°17'0 0.0
2018-Aug-16 09:00N 36°49' W 076°17'0 0.0
2018-Aug-16 08:30N 36°48' W 076°17'0 0.0
2018-Aug-16 08:00N 36°49' W 076°17'0 0.0
2018-Aug-16 07:30N 36°48' W 076°17'0 0.0
2018-Aug-16 07:00N 36°48' W 076°17'0 0.0
2018-Aug-16 06:30N 36°49' W 076°17'0 0.0
2018-Aug-16 06:00N 36°48' W 076°17'0 0.0
2018-Aug-16 05:30N 36°49' W 076°17'0 0.0
2018-Aug-16 05:00N 36°49' W 076°17'0 0.0
2018-Aug-16 04:30N 36°49' W 076°17'0 0.0
2018-Aug-16 04:00N 36°49' W 076°17'0 0.0
2018-Aug-16 03:30N 36°49' W 076°17'0 0.0
2018-Aug-16 03:00N 36°49' W 076°17'0 0.0
2018-Aug-16 02:30N 36°49' W 076°17'0 0.0
2018-Aug-16 02:00N 36°48' W 076°17'0 0.0
2018-Aug-16 01:30N 36°48' W 076°17'0 0.0
2018-Aug-16 01:00N 36°49' W 076°17'0 0.0
2018-Aug-16 00:30N 36°49' W 076°17'0 0.0
2018-Aug-16 00:00N 36°49' W 076°17'0 0.0
2018-Aug-15 23:30N 36°48' W 076°17'2 4.2
2018-Aug-15 23:00N 36°50' W 076°16'1 1.3
2018-Aug-15 22:30N 36°50' W 076°17'6 0.5
2018-Aug-15 10:21N 36°56' W 076°20'1 3.7
2018-Aug-15 10:00N 36°55' W 076°20'3 6.3
2018-Aug-15 09:31N 36°52' W 076°19'2 5.0
2018-Aug-15 09:01N 36°50' W 076°16'1 1.5
2018-Aug-15 08:31N 36°50' W 076°16'2 4.7
2018-Aug-15 08:00N 36°48' W 076°17'0 0.1
2018-Aug-15 07:30N 36°48' W 076°17'0 0.0
2018-Aug-15 07:00N 36°49' W 076°17'0 0.0
2018-Aug-15 06:31N 36°49' W 076°17'0 0.0
2018-Aug-15 06:01N 36°49' W 076°17'0 0.0
2018-Aug-15 05:30N 36°49' W 076°17'0 0.0
2018-Aug-15 05:00N 36°48' W 076°17'0 0.0
2018-Aug-15 04:30N 36°48' W 076°17'0 0.0
2018-Aug-15 04:00N 36°48' W 076°17'0 0.0
2018-Aug-15 03:31N 36°48' W 076°17'0 0.0
2018-Aug-15 03:01N 36°48' W 076°17'0 0.0
2018-Aug-15 02:30N 36°48' W 076°17'0 0.0
2018-Aug-15 02:01N 36°48' W 076°17'0 0.0
2018-Aug-15 01:31N 36°48' W 076°17'0 0.0
2018-Aug-15 01:00N 36°49' W 076°17'0 0.0
2018-Aug-15 00:30N 36°49' W 076°17'0 0.0
2018-Aug-15 00:00N 36°49' W 076°17'0 0.0
2018-Aug-14 23:30N 36°48' W 076°17'0 0.0
2018-Aug-14 23:00N 36°49' W 076°17'0 0.0
2018-Aug-14 22:31N 36°48' W 076°17'0 0.0
2018-Aug-14 22:00N 36°48' W 076°17'2 3.8
2018-Aug-14 21:30N 36°50' W 076°18'3 5.6
2018-Aug-14 20:55N 36°53' W 076°20'0 0.1
2018-Aug-14 20:30N 36°53' W 076°20'0 0.1
2018-Aug-14 19:54N 36°53' W 076°20'2 0.7
2018-Aug-14 16:52N 36°55' W 076°20'3 8.1
2018-Aug-14 16:30N 36°52' W 076°20'3 6.7
2018-Aug-14 16:00N 36°50' W 076°16'1 1.9
2018-Aug-14 15:28N 36°50' W 076°15'0 0.0
2018-Aug-14 15:00N 36°50' W 076°15'0 0.0
2018-Aug-14 14:30N 36°50' W 076°15'0 0.0
2018-Aug-14 14:00N 36°50' W 076°15'0 0.0
2018-Aug-14 13:30N 36°50' W 076°15'0 0.0
2018-Aug-14 13:00N 36°50' W 076°15'0 0.0
2018-Aug-14 12:30N 36°50' W 076°15'3 5.1
2018-Aug-14 12:00N 36°49' W 076°17'0 0.7
2018-Aug-14 11:30N 36°48' W 076°17'0 0.0
2018-Aug-14 11:00N 36°48' W 076°17'0 0.0
2018-Aug-14 10:31N 36°48' W 076°17'0 0.0
2018-Aug-14 09:59N 36°48' W 076°17'0 0.0
2018-Aug-14 09:31N 36°48' W 076°17'0 0.0
2018-Aug-14 09:00N 36°48' W 076°17'0 0.0
2018-Aug-14 08:31N 36°48' W 076°17'0 0.0
2018-Aug-14 08:01N 36°48' W 076°17'0 0.0
2018-Aug-14 07:30N 36°48' W 076°17'0 0.0
2018-Aug-14 07:00N 36°48' W 076°17'0 0.0
2018-Aug-14 06:31N 36°48' W 076°17'0 0.0
2018-Aug-14 06:01N 36°48' W 076°17'0 0.0
2018-Aug-14 05:30N 36°48' W 076°17'0 0.0
2018-Aug-14 05:00N 36°48' W 076°17'0 0.0
2018-Aug-14 04:30N 36°48' W 076°17'0 0.0
2018-Aug-14 04:01N 36°48' W 076°17'0 0.0
2018-Aug-14 03:31N 36°48' W 076°17'0 0.0
2018-Aug-14 03:01N 36°48' W 076°17'0 0.0
2018-Aug-14 02:30N 36°48' W 076°17'0 0.0
2018-Aug-14 02:01N 36°48' W 076°17'0 0.0
2018-Aug-14 01:31N 36°48' W 076°17'0 0.0
2018-Aug-14 01:00N 36°48' W 076°17'0 0.0
2018-Aug-14 00:30N 36°48' W 076°17'0 0.0
2018-Aug-14 00:00N 36°48' W 076°17'0 0.0
2018-Aug-13 23:31N 36°48' W 076°17'0 0.0
2018-Aug-13 23:01N 36°48' W 076°17'0 0.0
2018-Aug-13 22:30N 36°48' W 076°17'0 0.0
2018-Aug-13 22:01N 36°48' W 076°17'0 0.0
2018-Aug-13 21:30N 36°48' W 076°17'0 0.0
2018-Aug-13 20:58N 36°48' W 076°17'0 0.0
2018-Aug-13 20:31N 36°48' W 076°17'0 0.0
2018-Aug-13 20:01N 36°48' W 076°17'1 2.7
2018-Aug-13 19:30N 36°50' W 076°18'5 2.4
2018-Aug-13 17:17N 36°55' W 076°20'2 3.4
2018-Aug-13 16:49N 36°53' W 076°20'1 3.4
2018-Aug-13 16:30N 36°52' W 076°20'3 7.0
2018-Aug-13 16:00N 36°49' W 076°17'1 1.3
2018-Aug-13 15:30N 36°48' W 076°17'0 0.0
2018-Aug-13 15:00N 36°48' W 076°17'0 0.0
2018-Aug-13 14:31N 36°48' W 076°17'3 5.8
2018-Aug-13 14:00N 36°46' W 076°18'1 1.4
2018-Aug-13 13:29N 36°45' W 076°18'1 1.5
2018-Aug-13 13:00N 36°46' W 076°18'3 6.0
2018-Aug-13 12:30N 36°48' W 076°17'0 0.0
2018-Aug-13 12:00N 36°48' W 076°17'0 0.4
2018-Aug-13 11:30N 36°49' W 076°17'1 2.4
2018-Aug-13 11:00N 36°50' W 076°18'2 3.5
2018-Aug-13 10:31N 36°48' W 076°18'0 0.0
2018-Aug-13 10:00N 36°48' W 076°18'1 1.2
2018-Aug-13 09:30N 36°48' W 076°17'0 0.0
2018-Aug-13 09:00N 36°48' W 076°17'0 0.0
2018-Aug-13 08:30N 36°48' W 076°17'0 0.0
2018-Aug-13 08:00N 36°48' W 076°17'0 0.0
2018-Aug-13 07:30N 36°48' W 076°17'0 0.0
2018-Aug-13 07:00N 36°48' W 076°17'0 0.0
2018-Aug-13 06:30N 36°48' W 076°17'0 0.0
2018-Aug-13 06:00N 36°48' W 076°17'0 0.0
2018-Aug-13 05:30N 36°48' W 076°17'0 0.0
2018-Aug-13 05:00N 36°48' W 076°17'0 0.0
2018-Aug-13 04:30N 36°48' W 076°17'0 0.0
2018-Aug-13 04:00N 36°48' W 076°17'0 0.0
2018-Aug-13 03:30N 36°48' W 076°17'0 0.0
2018-Aug-13 03:00N 36°48' W 076°17'0 0.0
2018-Aug-13 02:30N 36°48' W 076°17'0 0.0
2018-Aug-13 02:00N 36°48' W 076°17'0 0.0
2018-Aug-13 01:30N 36°48' W 076°17'0 0.0
2018-Aug-13 01:00N 36°48' W 076°17'0 0.0
2018-Aug-13 00:30N 36°48' W 076°17'0 0.0
2018-Aug-13 00:00N 36°48' W 076°17'0 0.0
2018-Aug-12 23:30N 36°48' W 076°17'0 0.0
2018-Aug-12 23:00N 36°48' W 076°17'0 0.0
2018-Aug-12 22:30N 36°48' W 076°17'0 0.0
2018-Aug-12 22:00N 36°48' W 076°17'0 0.0
2018-Aug-12 21:30N 36°48' W 076°17'0 0.0
2018-Aug-12 21:00N 36°48' W 076°17'0 0.0
2018-Aug-12 20:30N 36°48' W 076°17'0 0.0
2018-Aug-12 20:00N 36°48' W 076°17'0 0.0
2018-Aug-12 19:30N 36°48' W 076°17'0 0.0
2018-Aug-12 19:00N 36°48' W 076°17'0 0.0
2018-Aug-12 18:30N 36°48' W 076°17'0 0.0
2018-Aug-12 18:00N 36°48' W 076°17'0 0.0
2018-Aug-12 17:30N 36°48' W 076°17'0 0.0
2018-Aug-12 17:00N 36°48' W 076°17'0 0.0
2018-Aug-12 16:30N 36°48' W 076°17'0 0.0
2018-Aug-12 16:00N 36°48' W 076°17'0 0.0
2018-Aug-12 15:30N 36°48' W 076°17'0 0.0
2018-Aug-12 15:00N 36°48' W 076°17'0 0.0
2018-Aug-12 14:30N 36°48' W 076°17'0 0.0
2018-Aug-12 14:00N 36°48' W 076°17'0 0.0
2018-Aug-12 13:30N 36°48' W 076°17'0 0.0
2018-Aug-12 13:00N 36°48' W 076°17'0 0.0
2018-Aug-12 12:30N 36°48' W 076°17'0 0.0
2018-Aug-12 12:00N 36°48' W 076°17'0 0.0
2018-Aug-12 11:30N 36°48' W 076°17'0 0.0
2018-Aug-12 11:00N 36°48' W 076°17'0 0.0
2018-Aug-12 10:30N 36°48' W 076°17'0 0.0
2018-Aug-12 10:00N 36°48' W 076°17'0 0.0
2018-Aug-12 09:30N 36°48' W 076°17'0 0.0
2018-Aug-12 09:00N 36°48' W 076°17'0 0.0
2018-Aug-12 08:30N 36°48' W 076°17'0 0.0
2018-Aug-12 08:00N 36°48' W 076°17'0 0.0
2018-Aug-12 07:30N 36°48' W 076°17'0 0.0
2018-Aug-12 07:00N 36°48' W 076°17'0 0.0
2018-Aug-12 06:30N 36°48' W 076°17'0 0.0
2018-Aug-12 06:00N 36°48' W 076°17'0 0.0
2018-Aug-12 05:30N 36°48' W 076°17'0 0.0
2018-Aug-12 05:00N 36°48' W 076°17'0 0.0
2018-Aug-12 04:30N 36°48' W 076°17'0 0.0
2018-Aug-12 04:00N 36°48' W 076°17'0 0.0
2018-Aug-12 03:30N 36°48' W 076°17'0 0.0
2018-Aug-12 03:00N 36°48' W 076°17'0 0.0
2018-Aug-12 02:30N 36°48' W 076°17'0 0.0
2018-Aug-12 02:00N 36°48' W 076°17'0 0.0
2018-Aug-12 01:30N 36°48' W 076°17'0 0.0
2018-Aug-12 01:00N 36°48' W 076°17'0 0.0
2018-Aug-12 00:30N 36°48' W 076°17'0 0.0
2018-Aug-12 00:00N 36°48' W 076°17'0 0.0
2018-Aug-11 23:30N 36°48' W 076°17'0 0.0
2018-Aug-11 23:00N 36°48' W 076°17'0 0.0
2018-Aug-11 22:30N 36°48' W 076°17'0 0.0
2018-Aug-11 22:00N 36°48' W 076°17'0 0.0
2018-Aug-11 21:30N 36°48' W 076°17'0 0.0
2018-Aug-11 21:00N 36°48' W 076°17'0 0.0
2018-Aug-11 20:30N 36°48' W 076°17'0 0.0
2018-Aug-11 20:00N 36°48' W 076°17'0 0.0
2018-Aug-11 19:30N 36°48' W 076°17'0 0.0
2018-Aug-11 19:00N 36°48' W 076°17'0 0.0
2018-Aug-11 18:30N 36°48' W 076°17'0 0.0
2018-Aug-11 18:00N 36°48' W 076°17'0 0.0
2018-Aug-11 17:30N 36°48' W 076°17'0 0.0
2018-Aug-11 17:00N 36°48' W 076°17'0 0.5
2018-Aug-11 16:30N 36°48' W 076°17'2 3.9
2018-Aug-11 16:00N 36°46' W 076°18'0 0.7
2018-Aug-11 15:30N 36°46' W 076°18'0 0.4
2018-Aug-11 15:00N 36°46' W 076°18'1 2.2
2018-Aug-11 14:29N 36°47' W 076°18'4 7.3
2018-Aug-11 14:00N 36°50' W 076°18'1 1.9
2018-Aug-11 13:30N 36°50' W 076°16'0 0.4
2018-Aug-11 13:00N 36°50' W 076°16'1 1.7
2018-Aug-11 12:30N 36°51' W 076°17'7 1.7
2018-Aug-11 08:43N 36°57' W 076°20'2 8.4
2018-Aug-11 08:29N 36°55' W 076°20'4 7.9
2018-Aug-11 08:00N 36°51' W 076°18'3 5.8
2018-Aug-11 07:30N 36°48' W 076°17'0 0.0
2018-Aug-11 07:00N 36°48' W 076°17'0 0.0
2018-Aug-11 06:30N 36°48' W 076°17'0 0.0
2018-Aug-11 06:00N 36°48' W 076°17'0 0.0
2018-Aug-11 05:30N 36°48' W 076°17'0 0.0
2018-Aug-11 05:00N 36°48' W 076°17'0 0.0
2018-Aug-11 04:30N 36°48' W 076°17'0 0.0
2018-Aug-11 04:00N 36°48' W 076°17'  
Track history (hours):
 
Tides and Currents Weather Stations Pressure Air Temp Water Temp Dewpoint Dewpoint Depression Visibility Wind Speed Wind Dir Waves Ship Positions

Merrimac

Owner: Intracoastal Marine, Inc., Coinjock, NC. More information available from US FCC via Universal Licensing System and Coast Guard Vessel Documentation Center.

Last reported at 2018-Aug-21 04:03 UTC. Time now 2018-Aug-21 04:20 UTC.
Position N 36°48' W 076°17'.

Length 23 m; draft 3 m.

Type: Tug. MMSI: 367091990.

Date/timePositionNaut miles runAvg speedWind from/ knotsBaromVisibWave heightAir tempDewpointWater temp
2018-Aug-21 04:03N 36°48' W 076°17'0 0.1
2018-Aug-21 04:00N 36°49' W 076°17'0 0.0
2018-Aug-21 03:30N 36°49' W 076°17'0 0.0
2018-Aug-21 03:03N 36°48' W 076°17'0 0.1
2018-Aug-21 03:00N 36°49' W 076°17'0 0.0
2018-Aug-21 02:30N 36°49' W 076°17'0 0.0
2018-Aug-21 02:03N 36°49' W 076°17'0 0.0
2018-Aug-21 02:00N 36°49' W 076°17'0 0.0
2018-Aug-21 01:30N 36°49' W 076°17'0 0.0
2018-Aug-21 01:04N 36°48' W 076°17'0 0.1
2018-Aug-21 01:01N 36°49' W 076°17'0 0.0
2018-Aug-21 00:30N 36°48' W 076°17'0 0.0
2018-Aug-21 00:03N 36°49' W 076°17'0 0.0
2018-Aug-21 00:00N 36°49' W 076°17'0 0.0
2018-Aug-20 23:30N 36°49' W 076°17'0 0.0
2018-Aug-20 23:03N 36°49' W 076°17'0 0.0
2018-Aug-20 23:00N 36°49' W 076°17'0 0.0
2018-Aug-20 22:30N 36°49' W 076°17'0 0.0
2018-Aug-20 22:03N 36°49' W 076°17'0 0.0
2018-Aug-20 22:00N 36°49' W 076°17'0 0.0
2018-Aug-20 21:30N 36°48' W 076°17'0 0.0
2018-Aug-20 21:03N 36°48' W 076°17'0 0.1
2018-Aug-20 21:00N 36°49' W 076°17'0 0.0
2018-Aug-20 20:30N 36°48' W 076°17'0 0.0
2018-Aug-20 20:04N 36°49' W 076°17'0 0.0
2018-Aug-20 20:01N 36°49' W 076°17'0 0.0
2018-Aug-20 19:30N 36°49' W 076°17'0 0.0
2018-Aug-20 19:03N 36°49' W 076°17'0 0.0
2018-Aug-20 19:01N 36°49' W 076°17'0 0.0
2018-Aug-20 18:30N 36°48' W 076°17'0 0.1
2018-Aug-20 18:03N 36°48' W 076°17'0 4.0
2018-Aug-20 18:00N 36°49' W 076°17'5 6.1
2018-Aug-20 17:13N 36°53' W 076°20'1 8.1
2018-Aug-20 17:03N 36°52' W 076°19'1 8.4
2018-Aug-20 17:00N 36°52' W 076°19'3 6.7
2018-Aug-20 16:30N 36°48' W 076°17'0 0.4
2018-Aug-20 16:03N 36°49' W 076°17'0 0.0
2018-Aug-20 16:00N 36°49' W 076°17'0 0.3
2018-Aug-20 15:30N 36°48' W 076°17'1 1.9
2018-Aug-20 15:03N 36°48' W 076°18'0 4.7
2018-Aug-20 15:00N 36°48' W 076°18'3 5.3
2018-Aug-20 14:30N 36°50' W 076°17'2 3.4
2018-Aug-20 13:59N 36°50' W 076°15'1 2.9
2018-Aug-20 13:30N 36°50' W 076°17'0 0.3
2018-Aug-20 13:03N 36°50' W 076°17'0 0.1
2018-Aug-20 13:00N 36°50' W 076°17'0 0.0
2018-Aug-20 12:30N 36°50' W 076°17'1 3.1
2018-Aug-20 12:03N 36°49' W 076°17'0 7.6
2018-Aug-20 12:00N 36°49' W 076°17'0 0.5
2018-Aug-20 11:30N 36°48' W 076°17'0 0.0
2018-Aug-20 11:03N 36°49' W 076°17'0 0.1
2018-Aug-20 11:00N 36°48' W 076°17'0 0.0
2018-Aug-20 10:31N 36°48' W 076°17'0 0.0
2018-Aug-20 10:03N 36°49' W 076°17'0 0.1
2018-Aug-20 10:00N 36°48' W 076°17'0 0.0
2018-Aug-20 09:30N 36°49' W 076°17'0 0.0
2018-Aug-20 09:03N 36°49' W 076°17'0 0.1
2018-Aug-20 09:00N 36°49' W 076°17'0 0.0
2018-Aug-20 08:30N 36°49' W 076°17'0 0.0
2018-Aug-20 08:03N 36°49' W 076°17'0 0.1
2018-Aug-20 08:00N 36°49' W 076°17'0 0.0
2018-Aug-20 07:30N 36°49' W 076°17'0 0.0
2018-Aug-20 07:03N 36°49' W 076°17'0 0.0
2018-Aug-20 07:00N 36°49' W 076°17'0 0.0
2018-Aug-20 06:30N 36°49' W 076°17'0 0.0
2018-Aug-20 06:03N 36°49' W 076°17'0 0.0
2018-Aug-20 06:00N 36°49' W 076°17'0 0.0
2018-Aug-20 05:30N 36°49' W 076°17'0 0.0
2018-Aug-20 05:03N 36°49' W 076°17'0 0.1
2018-Aug-20 05:00N 36°49' W 076°17'0 0.0
2018-Aug-20 04:47N 36°49' W 076°17'0 0.0
2018-Aug-20 04:30N 36°49' W 076°17'0 0.0
2018-Aug-20 04:00N 36°49' W 076°17'0 0.0
2018-Aug-20 03:30N 36°49' W 076°17'0 0.0
2018-Aug-20 03:00N 36°49' W 076°17'0 0.0
2018-Aug-20 02:30N 36°49' W 076°17'0 0.0
2018-Aug-20 02:00N 36°49' W 076°17'0 0.0
2018-Aug-20 01:30N 36°49' W 076°17'0 0.0
2018-Aug-20 01:00N 36°49' W 076°17'0 0.0
2018-Aug-20 00:30N 36°49' W 076°17'0 0.0
2018-Aug-20 00:00N 36°49' W 076°17'0 0.0
2018-Aug-19 23:30N 36°49' W 076°17'0 0.0
2018-Aug-19 23:00N 36°49' W 076°17'0 0.0
2018-Aug-19 22:30N 36°49' W 076°17'0 0.0
2018-Aug-19 22:00N 36°49' W 076°17'0 0.0
2018-Aug-19 21:30N 36°49' W 076°17'0 0.0
2018-Aug-19 21:00N 36°49' W 076°17'0 0.0
2018-Aug-19 20:30N 36°49' W 076°17'0 0.0
2018-Aug-19 20:00N 36°49' W 076°17'0 0.0
2018-Aug-19 19:30N 36°49' W 076°17'0 0.0
2018-Aug-19 19:00N 36°49' W 076°17'0 0.0
2018-Aug-19 18:30N 36°49' W 076°17'0 0.0
2018-Aug-19 18:00N 36°49' W 076°17'0 0.0
2018-Aug-19 17:30N 36°49' W 076°17'0 0.0
2018-Aug-19 17:00N 36°49' W 076°17'0 0.0
2018-Aug-19 16:30N 36°49' W 076°17'0 0.0
2018-Aug-19 16:00N 36°49' W 076°17'0 0.0
2018-Aug-19 15:30N 36°49' W 076°17'0 0.0
2018-Aug-19 15:00N 36°49' W 076°17'0 0.0
2018-Aug-19 14:30N 36°49' W 076°17'0 0.0
2018-Aug-19 14:00N 36°49' W 076°17'0 0.0
2018-Aug-19 13:30N 36°49' W 076°17'0 0.0
2018-Aug-19 13:00N 36°49' W 076°17'0 0.0
2018-Aug-19 12:30N 36°49' W 076°17'0 0.0
2018-Aug-19 12:00N 36°49' W 076°17'0 0.0
2018-Aug-19 11:30N 36°49' W 076°17'0 0.0
2018-Aug-19 11:00N 36°49' W 076°17'0 0.0
2018-Aug-19 10:30N 36°49' W 076°17'0 0.0
2018-Aug-19 10:00N 36°49' W 076°17'0 0.0
2018-Aug-19 09:30N 36°49' W 076°17'0 0.0
2018-Aug-19 09:00N 36°49' W 076°17'0 0.0
2018-Aug-19 08:30N 36°49' W 076°17'0 0.0
2018-Aug-19 08:00N 36°49' W 076°17'0 0.0
2018-Aug-19 07:30N 36°49' W 076°17'0 0.0
2018-Aug-19 07:00N 36°49' W 076°17'0 0.0
2018-Aug-19 06:30N 36°49' W 076°17'0 0.0
2018-Aug-19 06:00N 36°49' W 076°17'0 0.0
2018-Aug-19 05:30N 36°49' W 076°17'0 0.0
2018-Aug-19 05:00N 36°49' W 076°17'0 0.0
2018-Aug-19 04:30N 36°49' W 076°17'0 0.0
2018-Aug-19 04:00N 36°49' W 076°17'0 0.0
2018-Aug-19 03:30N 36°49' W 076°17'0 0.0
2018-Aug-19 03:00N 36°49' W 076°17'0 0.0
2018-Aug-19 02:30N 36°49' W 076°17'0 0.0
2018-Aug-19 02:00N 36°49' W 076°17'0 0.0
2018-Aug-19 01:30N 36°49' W 076°17'0 0.0
2018-Aug-19 01:00N 36°49' W 076°17'0 0.0
2018-Aug-19 00:30N 36°49' W 076°17'0 0.0
2018-Aug-19 00:00N 36°49' W 076°17'0 0.0
2018-Aug-18 23:30N 36°49' W 076°17'0 0.0
2018-Aug-18 23:00N 36°49' W 076°17'0 0.0
2018-Aug-18 22:30N 36°49' W 076°17'0 0.0
2018-Aug-18 22:00N 36°49' W 076°17'0 0.0
2018-Aug-18 21:30N 36°49' W 076°17'0 0.0
2018-Aug-18 21:00N 36°49' W 076°17'0 0.0
2018-Aug-18 20:30N 36°49' W 076°17'0 0.0
2018-Aug-18 20:00N 36°49' W 076°17'0 0.1
2018-Aug-18 19:31N 36°48' W 076°17'1 2.1
2018-Aug-18 19:00N 36°48' W 076°18'3 5.3
2018-Aug-18 18:31N 36°50' W 076°18'126 5.8
2018-Aug-17 20:44N 38°56' W 076°25'4 6.5
2018-Aug-17 20:06N 38°60' W 076°23'2 6.6
2018-Aug-17 19:50N 39°01' W 076°23'2 6.5
2018-Aug-17 19:29N 39°04' W 076°23'3 6.4
2018-Aug-17 18:58N 39°07' W 076°24'3 6.2
2018-Aug-17 18:30N 39°10' W 076°25'3 5.9
2018-Aug-17 18:00N 39°11' W 076°28'3 6.0
2018-Aug-17 17:31N 39°13' W 076°32'2 4.9
2018-Aug-17 17:00N 39°13' W 076°35'0 0.8
2018-Aug-17 16:30N 39°12' W 076°35'0 0.0
2018-Aug-17 16:00N 39°12' W 076°35'0 0.0
2018-Aug-17 15:30N 39°12' W 076°35'0 0.0
2018-Aug-17 15:01N 39°12' W 076°35'0 0.0
2018-Aug-17 14:01N 39°12' W 076°35'0 0.0
2018-Aug-17 13:30N 39°12' W 076°35'0 0.0
2018-Aug-17 13:01N 39°12' W 076°35'0 0.0
2018-Aug-17 12:30N 39°12' W 076°35'0 0.0
2018-Aug-17 12:00N 39°12' W 076°35'0 0.0
2018-Aug-17 11:30N 39°12' W 076°35'0 0.0
2018-Aug-17 11:00N 39°12' W 076°35'0 0.0
2018-Aug-17 10:30N 39°12' W 076°35'0 0.0
2018-Aug-17 10:00N 39°12' W 076°35'0 0.0
2018-Aug-17 09:30N 39°12' W 076°35'0 0.0
2018-Aug-17 09:00N 39°12' W 076°35'2 3.7
2018-Aug-17 08:30N 39°13' W 076°33'4 7.4
2018-Aug-17 08:00N 39°12' W 076°29'4 7.1
2018-Aug-17 07:30N 39°09' W 076°25'5 7.1
2018-Aug-17 06:48N 39°05' W 076°24'2 7.5
2018-Aug-17 06:28N 39°02' W 076°23'3 7.2
2018-Aug-17 06:00N 38°59' W 076°23'10 7.7
2018-Aug-17 04:40N 38°49' W 076°27'1 7.6
2018-Aug-17 04:30N 38°48' W 076°28'111 7.4
2018-Aug-16 13:36N 36°57' W 076°20'2 6.8
2018-Aug-16 13:22N 36°55' W 076°20'2 6.7
2018-Aug-16 13:00N 36°53' W 076°20'3 6.7
2018-Aug-16 12:30N 36°50' W 076°18'3 6.6
2018-Aug-16 12:00N 36°47' W 076°18'0 0.8
2018-Aug-16 11:30N 36°47' W 076°19'2 4.0
2018-Aug-16 11:00N 36°48' W 076°17'0 0.3
2018-Aug-16 10:30N 36°49' W 076°17'0 0.0
2018-Aug-16 10:00N 36°49' W 076°17'0 0.0
2018-Aug-16 09:30N 36°49' W 076°17'0 0.0
2018-Aug-16 09:00N 36°49' W 076°17'0 0.0
2018-Aug-16 08:30N 36°48' W 076°17'0 0.0
2018-Aug-16 08:00N 36°49' W 076°17'0 0.0
2018-Aug-16 07:30N 36°48' W 076°17'0 0.0
2018-Aug-16 07:00N 36°48' W 076°17'0 0.0
2018-Aug-16 06:30N 36°49' W 076°17'0 0.0
2018-Aug-16 06:00N 36°48' W 076°17'0 0.0
2018-Aug-16 05:30N 36°49' W 076°17'0 0.0
2018-Aug-16 05:00N 36°49' W 076°17'0 0.0
2018-Aug-16 04:30N 36°49' W 076°17'0 0.0
2018-Aug-16 04:00N 36°49' W 076°17'0 0.0
2018-Aug-16 03:30N 36°49' W 076°17'0 0.0
2018-Aug-16 03:00N 36°49' W 076°17'0 0.0
2018-Aug-16 02:30N 36°49' W 076°17'0 0.0
2018-Aug-16 02:00N 36°48' W 076°17'0 0.0
2018-Aug-16 01:30N 36°48' W 076°17'0 0.0
2018-Aug-16 01:00N 36°49' W 076°17'0 0.0
2018-Aug-16 00:30N 36°49' W 076°17'0 0.0
2018-Aug-16 00:00N 36°49' W 076°17'0 0.0
2018-Aug-15 23:30N 36°48' W 076°17'2 4.2
2018-Aug-15 23:00N 36°50' W 076°16'1 1.3
2018-Aug-15 22:30N 36°50' W 076°17'6 0.5
2018-Aug-15 10:21N 36°56' W 076°20'1 3.7
2018-Aug-15 10:00N 36°55' W 076°20'3 6.3
2018-Aug-15 09:31N 36°52' W 076°19'2 5.0
2018-Aug-15 09:01N 36°50' W 076°16'1 1.5
2018-Aug-15 08:31N 36°50' W 076°16'2 4.7
2018-Aug-15 08:00N 36°48' W 076°17'0 0.1
2018-Aug-15 07:30N 36°48' W 076°17'0 0.0
2018-Aug-15 07:00N 36°49' W 076°17'0 0.0
2018-Aug-15 06:31N 36°49' W 076°17'0 0.0
2018-Aug-15 06:01N 36°49' W 076°17'0 0.0
2018-Aug-15 05:30N 36°49' W 076°17'0 0.0
2018-Aug-15 05:00N 36°48' W 076°17'0 0.0
2018-Aug-15 04:30N 36°48' W 076°17'0 0.0
2018-Aug-15 04:00N 36°48' W 076°17'0 0.0
2018-Aug-15 03:31N 36°48' W 076°17'0 0.0
2018-Aug-15 03:01N 36°48' W 076°17'0 0.0
2018-Aug-15 02:30N 36°48' W 076°17'0 0.0
2018-Aug-15 02:01N 36°48' W 076°17'0 0.0
2018-Aug-15 01:31N 36°48' W 076°17'0 0.0
2018-Aug-15 01:00N 36°49' W 076°17'0 0.0
2018-Aug-15 00:30N 36°49' W 076°17'0 0.0
2018-Aug-15 00:00N 36°49' W 076°17'0 0.0
2018-Aug-14 23:30N 36°48' W 076°17'0 0.0
2018-Aug-14 23:00N 36°49' W 076°17'0 0.0
2018-Aug-14 22:31N 36°48' W 076°17'0 0.0
2018-Aug-14 22:00N 36°48' W 076°17'2 3.8
2018-Aug-14 21:30N 36°50' W 076°18'3 5.6
2018-Aug-14 20:55N 36°53' W 076°20'0 0.1
2018-Aug-14 20:30N 36°53' W 076°20'0 0.1
2018-Aug-14 19:54N 36°53' W 076°20'2 0.7
2018-Aug-14 16:52N 36°55' W 076°20'3 8.1
2018-Aug-14 16:30N 36°52' W 076°20'3 6.7
2018-Aug-14 16:00N 36°50' W 076°16'1 1.9
2018-Aug-14 15:28N 36°50' W 076°15'0 0.0
2018-Aug-14 15:00N 36°50' W 076°15'0 0.0
2018-Aug-14 14:30N 36°50' W 076°15'0 0.0
2018-Aug-14 14:00N 36°50' W 076°15'0 0.0
2018-Aug-14 13:30N 36°50' W 076°15'0 0.0
2018-Aug-14 13:00N 36°50' W 076°15'0 0.0
2018-Aug-14 12:30N 36°50' W 076°15'3 5.1
2018-Aug-14 12:00N 36°49' W 076°17'0 0.7
2018-Aug-14 11:30N 36°48' W 076°17'0 0.0
2018-Aug-14 11:00N 36°48' W 076°17'0 0.0
2018-Aug-14 10:31N 36°48' W 076°17'0 0.0
2018-Aug-14 09:59N 36°48' W 076°17'0 0.0
2018-Aug-14 09:31N 36°48' W 076°17'0 0.0
2018-Aug-14 09:00N 36°48' W 076°17'0 0.0
2018-Aug-14 08:31N 36°48' W 076°17'0 0.0
2018-Aug-14 08:01N 36°48' W 076°17'0 0.0
2018-Aug-14 07:30N 36°48' W 076°17'0 0.0
2018-Aug-14 07:00N 36°48' W 076°17'0 0.0
2018-Aug-14 06:31N 36°48' W 076°17'0 0.0
2018-Aug-14 06:01N 36°48' W 076°17'0 0.0
2018-Aug-14 05:30N 36°48' W 076°17'0 0.0
2018-Aug-14 05:00N 36°48' W 076°17'0 0.0
2018-Aug-14 04:30N 36°48' W 076°17'0 0.0
2018-Aug-14 04:01N 36°48' W 076°17'0 0.0
2018-Aug-14 03:31N 36°48' W 076°17'0 0.0
2018-Aug-14 03:01N 36°48' W 076°17'0 0.0
2018-Aug-14 02:30N 36°48' W 076°17'0 0.0
2018-Aug-14 02:01N 36°48' W 076°17'0 0.0
2018-Aug-14 01:31N 36°48' W 076°17'0 0.0
2018-Aug-14 01:00N 36°48' W 076°17'0 0.0
2018-Aug-14 00:30N 36°48' W 076°17'0 0.0
2018-Aug-14 00:00N 36°48' W 076°17'0 0.0
2018-Aug-13 23:31N 36°48' W 076°17'0 0.0
2018-Aug-13 23:01N 36°48' W 076°17'0 0.0
2018-Aug-13 22:30N 36°48' W 076°17'0 0.0
2018-Aug-13 22:01N 36°48' W 076°17'0 0.0
2018-Aug-13 21:30N 36°48' W 076°17'0 0.0
2018-Aug-13 20:58N 36°48' W 076°17'0 0.0
2018-Aug-13 20:31N 36°48' W 076°17'0 0.0
2018-Aug-13 20:01N 36°48' W 076°17'1 2.7
2018-Aug-13 19:30N 36°50' W 076°18'5 2.4
2018-Aug-13 17:17N 36°55' W 076°20'2 3.4
2018-Aug-13 16:49N 36°53' W 076°20'1 3.4
2018-Aug-13 16:30N 36°52' W 076°20'3 7.0
2018-Aug-13 16:00N 36°49' W 076°17'1 1.3
2018-Aug-13 15:30N 36°48' W 076°17'0 0.0
2018-Aug-13 15:00N 36°48' W 076°17'0 0.0
2018-Aug-13 14:31N 36°48' W 076°17'3 5.8
2018-Aug-13 14:00N 36°46' W 076°18'1 1.4
2018-Aug-13 13:29N 36°45' W 076°18'1 1.5
2018-Aug-13 13:00N 36°46' W 076°18'3 6.0
2018-Aug-13 12:30N 36°48' W 076°17'0 0.0
2018-Aug-13 12:00N 36°48' W 076°17'0 0.4
2018-Aug-13 11:30N 36°49' W 076°17'1 2.4
2018-Aug-13 11:00N 36°50' W 076°18'2 3.5
2018-Aug-13 10:31N 36°48' W 076°18'0 0.0
2018-Aug-13 10:00N 36°48' W 076°18'1 1.2
2018-Aug-13 09:30N 36°48' W 076°17'0 0.0
2018-Aug-13 09:00N 36°48' W 076°17'0 0.0
2018-Aug-13 08:30N 36°48' W 076°17'0 0.0
2018-Aug-13 08:00N 36°48' W 076°17'0 0.0
2018-Aug-13 07:30N 36°48' W 076°17'0 0.0
2018-Aug-13 07:00N 36°48' W 076°17'0 0.0
2018-Aug-13 06:30N 36°48' W 076°17'0 0.0
2018-Aug-13 06:00N 36°48' W 076°17'0 0.0
2018-Aug-13 05:30N 36°48' W 076°17'0 0.0
2018-Aug-13 05:00N 36°48' W 076°17'0 0.0
2018-Aug-13 04:30N 36°48' W 076°17'0 0.0
2018-Aug-13 04:00N 36°48' W 076°17'0 0.0
2018-Aug-13 03:30N 36°48' W 076°17'0 0.0
2018-Aug-13 03:00N 36°48' W 076°17'0 0.0
2018-Aug-13 02:30N 36°48' W 076°17'0 0.0
2018-Aug-13 02:00N 36°48' W 076°17'0 0.0
2018-Aug-13 01:30N 36°48' W 076°17'0 0.0
2018-Aug-13 01:00N 36°48' W 076°17'0 0.0
2018-Aug-13 00:30N 36°48' W 076°17'0 0.0
2018-Aug-13 00:00N 36°48' W 076°17'0 0.0
2018-Aug-12 23:30N 36°48' W 076°17'0 0.0
2018-Aug-12 23:00N 36°48' W 076°17'0 0.0
2018-Aug-12 22:30N 36°48' W 076°17'0 0.0
2018-Aug-12 22:00N 36°48' W 076°17'0 0.0
2018-Aug-12 21:30N 36°48' W 076°17'0 0.0
2018-Aug-12 21:00N 36°48' W 076°17'0 0.0
2018-Aug-12 20:30N 36°48' W 076°17'0 0.0
2018-Aug-12 20:00N 36°48' W 076°17'0 0.0
2018-Aug-12 19:30N 36°48' W 076°17'0 0.0
2018-Aug-12 19:00N 36°48' W 076°17'0 0.0
2018-Aug-12 18:30N 36°48' W 076°17'0 0.0
2018-Aug-12 18:00N 36°48' W 076°17'0 0.0
2018-Aug-12 17:30N 36°48' W 076°17'0 0.0
2018-Aug-12 17:00N 36°48' W 076°17'0 0.0
2018-Aug-12 16:30N 36°48' W 076°17'0 0.0
2018-Aug-12 16:00N 36°48' W 076°17'0 0.0
2018-Aug-12 15:30N 36°48' W 076°17'0 0.0
2018-Aug-12 15:00N 36°48' W 076°17'0 0.0
2018-Aug-12 14:30N 36°48' W 076°17'0 0.0
2018-Aug-12 14:00N 36°48' W 076°17'0 0.0
2018-Aug-12 13:30N 36°48' W 076°17'0 0.0
2018-Aug-12 13:00N 36°48' W 076°17'0 0.0
2018-Aug-12 12:30N 36°48' W 076°17'0 0.0
2018-Aug-12 12:00N 36°48' W 076°17'0 0.0
2018-Aug-12 11:30N 36°48' W 076°17'0 0.0
2018-Aug-12 11:00N 36°48' W 076°17'0 0.0
2018-Aug-12 10:30N 36°48' W 076°17'0 0.0
2018-Aug-12 10:00N 36°48' W 076°17'0 0.0
2018-Aug-12 09:30N 36°48' W 076°17'0 0.0
2018-Aug-12 09:00N 36°48' W 076°17'0 0.0
2018-Aug-12 08:30N 36°48' W 076°17'0 0.0
2018-Aug-12 08:00N 36°48' W 076°17'0 0.0
2018-Aug-12 07:30N 36°48' W 076°17'0 0.0
2018-Aug-12 07:00N 36°48' W 076°17'0 0.0
2018-Aug-12 06:30N 36°48' W 076°17'0 0.0
2018-Aug-12 06:00N 36°48' W 076°17'0 0.0
2018-Aug-12 05:30N 36°48' W 076°17'0 0.0
2018-Aug-12 05:00N 36°48' W 076°17'0 0.0
2018-Aug-12 04:30N 36°48' W 076°17'0 0.0
2018-Aug-12 04:00N 36°48' W 076°17'0 0.0
2018-Aug-12 03:30N 36°48' W 076°17'0 0.0
2018-Aug-12 03:00N 36°48' W 076°17'0 0.0
2018-Aug-12 02:30N 36°48' W 076°17'0 0.0
2018-Aug-12 02:00N 36°48' W 076°17'0 0.0
2018-Aug-12 01:30N 36°48' W 076°17'0 0.0
2018-Aug-12 01:00N 36°48' W 076°17'0 0.0
2018-Aug-12 00:30N 36°48' W 076°17'0 0.0
2018-Aug-12 00:00N 36°48' W 076°17'0 0.0
2018-Aug-11 23:30N 36°48' W 076°17'0 0.0
2018-Aug-11 23:00N 36°48' W 076°17'0 0.0
2018-Aug-11 22:30N 36°48' W 076°17'0 0.0
2018-Aug-11 22:00N 36°48' W 076°17'0 0.0
2018-Aug-11 21:30N 36°48' W 076°17'0 0.0
2018-Aug-11 21:00N 36°48' W 076°17'0 0.0
2018-Aug-11 20:30N 36°48' W 076°17'0 0.0
2018-Aug-11 20:00N 36°48' W 076°17'0 0.0
2018-Aug-11 19:30N 36°48' W 076°17'0 0.0
2018-Aug-11 19:00N 36°48' W 076°17'0 0.0
2018-Aug-11 18:30N 36°48' W 076°17'0 0.0
2018-Aug-11 18:00N 36°48' W 076°17'0 0.0
2018-Aug-11 17:30N 36°48' W 076°17'0 0.0
2018-Aug-11 17:00N 36°48' W 076°17'0 0.5
2018-Aug-11 16:30N 36°48' W 076°17'2 3.9
2018-Aug-11 16:00N 36°46' W 076°18'0 0.7
2018-Aug-11 15:30N 36°46' W 076°18'0 0.4
2018-Aug-11 15:00N 36°46' W 076°18'1 2.2
2018-Aug-11 14:29N 36°47' W 076°18'4 7.3
2018-Aug-11 14:00N 36°50' W 076°18'1 1.9
2018-Aug-11 13:30N 36°50' W 076°16'0 0.4
2018-Aug-11 13:00N 36°50' W 076°16'1 1.7
2018-Aug-11 12:30N 36°51' W 076°17'7 1.7
2018-Aug-11 08:43N 36°57' W 076°20'2 8.4
2018-Aug-11 08:29N 36°55' W 076°20'4 7.9
2018-Aug-11 08:00N 36°51' W 076°18'3 5.8
2018-Aug-11 07:30N 36°48' W 076°17'0 0.0
2018-Aug-11 07:00N 36°48' W 076°17'0 0.0
2018-Aug-11 06:30N 36°48' W 076°17'0 0.0
2018-Aug-11 06:00N 36°48' W 076°17'0 0.0
2018-Aug-11 05:30N 36°48' W 076°17'0 0.0
2018-Aug-11 05:00N 36°48' W 076°17'0 0.0
2018-Aug-11 04:30N 36°48' W 076°17'0 0.0
2018-Aug-11 04:00N 36°48' W 076°17'  

Dump ship's entire track history